createdAt,value
2022-12-05T00:01:37.251Z,97724.16
2022-12-05T00:06:40.481Z,97715.53
2022-12-05T00:11:44.686Z,97724.84
2022-12-05T00:16:46.112Z,97721.84
2022-12-05T00:21:47.530Z,97722.50
2022-12-05T00:26:49.084Z,97728.31
2022-12-05T00:31:50.613Z,97726.97
2022-12-05T00:36:52.090Z,97731.63
2022-12-05T00:41:53.505Z,97740.09
2022-12-05T00:46:54.878Z,97737.44
2022-12-05T00:51:56.412Z,97738.09
2022-12-05T00:56:57.851Z,97740.75
2022-12-05T01:01:59.278Z,97740.59
2022-12-05T01:07:00.642Z,97732.13
2022-12-05T01:12:02.057Z,97736.47
2022-12-05T01:17:03.818Z,97742.59
2022-12-05T01:22:05.267Z,97743.91
2022-12-05T01:27:06.692Z,97732.13
2022-12-05T01:32:08.190Z,97732.31
2022-12-05T01:37:09.658Z,97730.66
2022-12-05T01:42:12.179Z,97738.28
2022-12-05T01:47:17.484Z,97744.41
2022-12-05T01:52:23.327Z,97754.72
2022-12-05T01:57:25.394Z,97747.41
2022-12-05T02:02:29.673Z,97743.09
2022-12-05T02:07:32.183Z,97737.47
2022-12-05T02:12:34.620Z,97739.63
2022-12-05T02:17:54.097Z,97734.47
2022-12-05T02:23:13.851Z,97752.38
2022-12-05T02:28:33.915Z,97748.41
2022-12-05T02:33:40.822Z,97750.56
2022-12-05T02:39:11.271Z,97749.72
2022-12-05T02:44:20.510Z,97744.56
2022-12-05T02:49:26.290Z,97737.59
2022-12-05T02:54:33.760Z,97729.13
2022-12-05T02:59:35.908Z,97726.81
2022-12-05T03:04:37.570Z,97730.28
2022-12-05T03:09:44.682Z,97721.66
2022-12-05T03:14:51.476Z,97726.63
2022-12-05T03:20:06.872Z,97730.47
2022-12-05T03:25:09.620Z,97730.16
2022-12-05T03:30:15.143Z,97735.13
2022-12-05T03:35:22.685Z,97743.25
2022-12-05T03:40:49.043Z,97744.78
2022-12-05T03:45:59.783Z,97749.25
2022-12-05T03:51:05.820Z,97751.41
2022-12-05T03:56:16.480Z,97741.44
2022-12-05T04:01:21.466Z,97747.59
2022-12-05T04:06:23.118Z,97754.22
2022-12-05T04:11:27.399Z,97744.25
2022-12-05T04:16:59.251Z,97754.84
2022-12-05T04:22:00.639Z,97752.38
2022-12-05T04:27:26.477Z,97761.31
2022-12-05T04:32:37.239Z,97755.34
2022-12-05T04:37:42.479Z,97760.84
2022-12-05T04:42:47.147Z,97755.72
2022-12-05T04:47:55.799Z,97760.69
2022-12-05T04:52:59.301Z,97759.69
2022-12-05T04:58:18.910Z,97773.97
2022-12-05T05:03:30.274Z,97777.28
2022-12-05T05:08:31.725Z,97779.56
2022-12-05T05:13:33.098Z,97782.53
2022-12-05T05:18:34.543Z,97780.88
2022-12-05T05:23:35.901Z,97783.53
2022-12-05T05:28:37.295Z,97785.38
2022-12-05T05:33:38.762Z,97788.38
2022-12-05T05:38:42.872Z,97790.53
2022-12-05T05:43:45.287Z,97803.13
2022-12-05T05:48:47.583Z,97809.25
2022-12-05T05:53:49.691Z,97803.75
2022-12-05T05:59:02.744Z,97806.06
2022-12-05T06:04:04.209Z,97803.38
2022-12-05T06:09:07.720Z,97816.97
2022-12-05T06:14:09.470Z,97818.63
2022-12-05T06:19:10.892Z,97816.78
2022-12-05T06:24:12.255Z,97821.28
2022-12-05T06:29:13.855Z,97829.91
2022-12-05T06:34:15.327Z,97845.50
2022-12-05T06:39:16.772Z,97849.97
2022-12-05T06:44:18.208Z,97865.06
2022-12-05T06:49:19.638Z,97858.94
2022-12-05T06:54:21.076Z,97874.84
2022-12-05T06:59:22.524Z,97879.69
2022-12-05T07:04:24.400Z,97863.47
2022-12-05T07:09:44.630Z,97868.22
2022-12-05T07:14:48.608Z,97876.50
2022-12-05T07:19:52.534Z,97878.31
2022-12-05T07:24:54.099Z,97875.00
2022-12-05T07:29:56.312Z,97882.81
2022-12-05T07:34:57.986Z,97894.25
2022-12-05T07:39:59.509Z,97900.91
2022-12-05T07:45:01.101Z,97892.28
2022-12-05T07:50:02.591Z,97902.94
2022-12-05T07:55:04.426Z,97898.34
2022-12-05T08:00:06.767Z,97909.16
2022-12-05T08:05:14.092Z,97920.13
2022-12-05T08:10:15.545Z,97905.91
2022-12-05T08:15:16.976Z,97919.19
2022-12-05T08:20:18.503Z,97923.88
2022-12-05T08:25:20.099Z,97915.09
2022-12-05T08:30:21.619Z,97921.91
2022-12-05T08:35:23.014Z,97924.06
2022-12-05T08:40:24.469Z,97927.06
2022-12-05T08:45:25.872Z,97924.78
2022-12-05T08:50:27.253Z,97924.47
2022-12-05T08:55:28.626Z,97928.44
2022-12-05T09:00:30.032Z,97931.44
2022-12-05T09:05:31.774Z,97937.44
2022-12-05T09:10:33.708Z,97940.25
2022-12-05T09:15:38.631Z,97946.72
2022-12-05T09:20:40.095Z,97957.34
2022-12-05T09:25:41.514Z,97968.81
2022-12-05T09:30:43.750Z,97971.47
2022-12-05T09:35:45.315Z,97971.63
2022-12-05T09:40:56.399Z,97964.16
2022-12-05T09:46:17.028Z,97963.66
2022-12-05T09:51:18.555Z,97968.66
2022-12-05T09:56:32.599Z,97963.66
2022-12-05T10:01:43.958Z,97967.00
2022-12-05T10:06:54.389Z,97972.31
2022-12-05T10:12:13.851Z,97970.13
2022-12-05T10:17:23.475Z,97978.94
2022-12-05T10:22:27.631Z,97977.97
2022-12-05T10:27:40.071Z,97970.13
2022-12-05T10:32:53.315Z,97970.31
2022-12-05T10:38:00.442Z,97960.34
2022-12-05T10:43:02.047Z,97958.69
2022-12-05T10:48:03.573Z,97958.53
2022-12-05T10:53:06.424Z,97960.69
2022-12-05T10:58:13.974Z,97963.03
2022-12-05T11:03:26.449Z,97966.38
2022-12-05T11:09:02.623Z,97956.06
2022-12-05T11:14:23.798Z,97960.56
2022-12-05T11:19:28.671Z,97961.94
2022-12-05T11:24:31.360Z,97968.09
2022-12-05T11:29:36.318Z,97944.94
2022-12-05T11:34:42.626Z,97950.88
2022-12-05T11:39:45.183Z,97952.22
2022-12-05T11:44:46.514Z,97954.19
2022-12-05T11:50:13.192Z,97958.69
2022-12-05T11:55:20.017Z,97957.53
2022-12-05T12:00:23.240Z,97954.38
2022-12-05T12:05:24.526Z,97962.19
2022-12-05T12:10:38.238Z,97953.22
2022-12-05T12:15:53.437Z,97947.91
2022-12-05T12:21:20.618Z,97943.41
2022-12-05T12:26:46.587Z,97940.63
2022-12-05T12:32:33.114Z,97929.16
2022-12-05T12:37:48.136Z,97930.00
2022-12-05T12:42:56.609Z,97924.34
2022-12-05T12:48:12.851Z,97922.53
2022-12-05T12:53:39.068Z,97920.03
2022-12-05T12:59:23.959Z,97931.50
2022-12-05T13:04:31.855Z,97933.03
2022-12-05T13:09:46.119Z,97929.50
2022-12-05T13:14:53.463Z,97930.19
2022-12-05T13:19:56.886Z,97935.81
2022-12-05T13:24:58.546Z,97946.25
2022-12-05T13:30:03.576Z,97943.06
2022-12-05T13:35:11.374Z,97951.88
2022-12-05T13:40:44.651Z,97957.94
2022-12-05T13:46:01.057Z,97956.34
2022-12-05T13:51:13.367Z,97956.94
2022-12-05T13:56:14.668Z,97963.19
2022-12-05T14:01:25.946Z,97960.16
2022-12-05T14:06:37.981Z,97952.38
2022-12-05T14:11:39.559Z,97956.50
2022-12-05T14:16:44.449Z,97952.88
2022-12-05T14:21:49.891Z,97952.66
2022-12-05T14:27:11.966Z,97947.75
2022-12-05T14:32:16.523Z,97947.00
2022-12-05T14:37:17.835Z,97961.03
2022-12-05T14:42:27.349Z,97953.84
2022-12-05T14:47:33.087Z,97960.25
2022-12-05T14:52:34.705Z,97959.13
2022-12-05T14:57:46.232Z,97957.88
2022-12-05T15:02:51.208Z,97956.56
2022-12-05T15:07:54.608Z,97964.56
2022-12-05T15:13:11.478Z,97959.34
2022-12-05T15:18:25.936Z,97972.28
2022-12-05T15:23:42.562Z,97967.69
2022-12-05T15:29:08.087Z,97978.13
2022-12-05T15:34:20.572Z,97977.00
2022-12-05T15:39:25.671Z,97968.66
2022-12-05T15:44:34.235Z,97974.25
2022-12-05T15:49:38.954Z,97979.03
2022-12-05T15:54:41.380Z,97976.16
2022-12-05T15:59:50.292Z,97983.00
2022-12-05T16:04:58.150Z,97988.06
2022-12-05T16:10:00.891Z,97986.03
2022-12-05T16:15:04.980Z,97996.09
2022-12-05T16:20:24.025Z,97999.28
2022-12-05T16:25:28.773Z,98000.63
2022-12-05T17:31:13.756Z,98008.00
2022-12-05T17:50:52.298Z,98006.44
2022-12-05T17:56:05.004Z,98006.44
2022-12-05T18:01:25.141Z,98015.34
2022-12-05T18:06:35.855Z,98024.88
2022-12-05T18:12:09.367Z,98016.22
2022-12-05T18:17:22.612Z,98023.06
2022-12-05T18:27:47.214Z,98018.00
2022-12-05T18:33:42.806Z,98015.22
2022-12-05T18:38:50.259Z,98018.72
2022-12-05T18:43:51.994Z,98034.75
2022-12-05T18:48:55.015Z,98036.09
2022-12-05T18:53:59.584Z,98043.72
2022-12-05T18:59:03.864Z,98049.13
2022-12-05T19:04:07.571Z,98051.50
2022-12-05T19:09:13.033Z,98050.25
2022-12-05T19:14:16.623Z,98043.53
2022-12-05T19:20:17.927Z,98047.00
2022-12-05T19:50:41.728Z,98026.44
2022-12-05T19:56:13.374Z,98040.13
2022-12-05T20:01:21.898Z,98035.13
2022-12-05T20:06:24.819Z,98040.44
2022-12-05T20:11:28.877Z,98040.66
2022-12-05T20:16:30.575Z,98046.22
2022-12-05T20:21:34.086Z,98047.88
2022-12-05T20:26:38.918Z,98047.97
2022-12-05T20:31:42.670Z,98050.88
2022-12-05T20:36:44.204Z,98059.66
2022-12-05T20:41:46.312Z,98037.91
2022-12-05T20:46:51.542Z,98041.75
2022-12-05T20:51:53.669Z,98034.31
2022-12-05T20:56:55.084Z,98027.25
2022-12-05T21:01:56.499Z,98027.44
2022-12-05T21:06:58.119Z,98031.91
2022-12-05T21:11:59.579Z,98019.41
2022-12-05T21:17:01.082Z,98026.38
2022-12-05T21:22:02.517Z,98020.72
2022-12-05T21:27:03.990Z,98021.00
2022-12-05T21:32:05.454Z,98023.91
2022-12-05T21:37:06.851Z,98021.38
2022-12-05T21:42:08.255Z,98019.94
2022-12-05T21:47:09.655Z,98009.22
2022-12-05T21:52:11.035Z,98012.81
2022-12-05T21:57:12.644Z,98004.59
2022-12-05T22:02:14.107Z,98002.06
2022-12-05T22:07:16.265Z,98008.44
2022-12-05T22:12:17.841Z,98019.31
2022-12-05T22:17:19.210Z,98008.44
2022-12-05T22:22:20.570Z,98003.28
2022-12-05T22:27:21.971Z,98008.69
2022-12-05T22:32:23.702Z,98005.88
2022-12-05T22:37:25.086Z,97996.25
2022-12-05T22:42:27.067Z,97976.88
2022-12-05T22:47:28.450Z,97991.13
2022-12-05T22:52:29.824Z,97986.94
2022-12-05T22:57:31.187Z,97985.16
2022-12-05T23:02:32.627Z,97987.81
2022-12-05T23:07:34.199Z,97979.88
2022-12-05T23:12:35.654Z,97966.94
2022-12-05T23:17:37.096Z,97970.94
2022-12-05T23:22:38.450Z,97960.19
2022-12-05T23:27:39.858Z,97946.22
2022-12-05T23:32:41.337Z,97937.97
2022-12-05T23:37:42.795Z,97926.84
2022-12-05T23:42:44.323Z,97918.13
2022-12-05T23:47:45.698Z,97922.75
2022-12-05T23:52:47.061Z,97921.75
2022-12-05T23:57:48.431Z,97926.25
